createdAt,value
2023-05-09T00:00:47.701Z,71.34
2023-05-09T00:03:14.545Z,71.30
2023-05-09T00:05:41.912Z,71.09
2023-05-09T00:08:08.869Z,71.10
2023-05-09T00:10:35.753Z,71.25
2023-05-09T00:13:02.651Z,71.11
2023-05-09T00:15:29.796Z,70.97
2023-05-09T00:17:56.433Z,71.11
2023-05-09T00:20:23.206Z,70.92
2023-05-09T00:22:50.079Z,71.05
2023-05-09T00:25:16.999Z,71.30
2023-05-09T00:27:43.808Z,71.35
2023-05-09T00:30:11.012Z,71.21
2023-05-09T00:32:37.752Z,71.08
2023-05-09T00:35:05.231Z,71.10
2023-05-09T00:37:31.977Z,70.99
2023-05-09T00:39:58.650Z,70.90
2023-05-09T00:42:25.264Z,70.97
2023-05-09T00:44:52.174Z,71.04
2023-05-09T00:47:19.306Z,71.21
2023-05-09T00:49:46.054Z,70.84
2023-05-09T00:52:12.951Z,71.13
2023-05-09T00:54:39.818Z,70.87
2023-05-09T00:57:06.580Z,70.94
2023-05-09T00:59:33.569Z,70.73
2023-05-09T01:02:00.923Z,70.72
2023-05-09T01:04:30.788Z,71.23
2023-05-09T01:07:11.002Z,70.96
2023-05-09T01:09:56.529Z,71.44
2023-05-09T01:13:04.554Z,71.18
2023-05-09T01:15:41.765Z,71.47
2023-05-09T01:18:31.758Z,71.35
2023-05-09T01:21:03.799Z,71.49
2023-05-09T01:23:49.000Z,71.23
2023-05-09T01:26:40.839Z,71.42
2023-05-09T01:29:37.480Z,71.30
2023-05-09T01:32:11.325Z,71.53
2023-05-09T01:34:41.726Z,71.20
2023-05-09T01:37:08.505Z,71.44
2023-05-09T01:39:40.060Z,71.39
2023-05-09T01:42:09.896Z,71.58
2023-05-09T01:44:40.351Z,71.60
2023-05-09T01:47:08.707Z,71.67
2023-05-09T01:49:41.342Z,71.84
2023-05-09T01:52:10.409Z,71.65
2023-05-09T01:54:38.865Z,71.62
2023-05-09T01:57:07.902Z,71.74
2023-05-09T01:59:35.932Z,71.87
2023-05-09T02:02:04.233Z,72.08
2023-05-09T02:04:31.708Z,71.98
2023-05-09T02:06:59.615Z,72.23
2023-05-09T02:09:26.250Z,71.86
2023-05-09T02:11:53.836Z,72.08
2023-05-09T02:14:20.644Z,72.19
2023-05-09T02:16:47.631Z,72.59
2023-05-09T02:19:14.446Z,72.66
2023-05-09T02:21:41.480Z,72.83
2023-05-09T02:24:08.250Z,72.63
2023-05-09T02:26:35.896Z,72.81
2023-05-09T02:29:05.721Z,72.81
2023-05-09T02:31:34.159Z,73.05
2023-05-09T02:34:04.566Z,73.01
2023-05-09T02:36:32.679Z,73.17
2023-05-09T02:38:59.556Z,72.89
2023-05-09T02:41:30.299Z,73.31
2023-05-09T02:43:57.009Z,73.31
2023-05-09T02:46:23.838Z,73.32
2023-05-09T02:48:51.603Z,73.40
2023-05-09T02:51:18.421Z,73.42
2023-05-09T02:53:45.103Z,73.32
2023-05-09T02:56:12.071Z,73.57
2023-05-09T02:58:38.795Z,73.61
2023-05-09T03:01:05.608Z,73.54
2023-05-09T03:03:34.938Z,73.57
2023-05-09T03:06:01.686Z,73.44
2023-05-09T03:08:28.309Z,73.57
2023-05-09T03:10:55.241Z,73.52
2023-05-09T03:13:22.111Z,73.51
2023-05-09T03:15:48.825Z,73.84
2023-05-09T03:18:16.045Z,73.74
2023-05-09T03:20:42.734Z,73.65
2023-05-09T03:23:10.149Z,73.74
2023-05-09T03:25:36.885Z,73.86
2023-05-09T03:28:03.771Z,74.06
2023-05-09T03:30:30.448Z,73.98
2023-05-09T03:32:57.416Z,74.21
2023-05-09T03:35:24.027Z,74.18
2023-05-09T03:37:50.708Z,74.20
2023-05-09T03:40:17.447Z,74.19
2023-05-09T03:42:44.052Z,73.96
2023-05-09T03:45:11.138Z,73.93
2023-05-09T03:47:38.188Z,74.11
2023-05-09T03:50:05.817Z,74.05
2023-05-09T03:52:32.474Z,74.20
2023-05-09T03:54:59.073Z,74.00
2023-05-09T03:57:25.718Z,74.08
2023-05-09T03:59:52.306Z,73.98
2023-05-09T04:02:19.084Z,74.10
2023-05-09T04:04:47.301Z,74.27
2023-05-09T04:07:14.006Z,74.31
2023-05-09T04:09:42.382Z,74.26
2023-05-09T04:12:09.361Z,74.43
2023-05-09T04:14:35.968Z,74.59
2023-05-09T04:17:02.725Z,74.47
2023-05-09T04:19:29.730Z,74.29
2023-05-09T04:21:56.362Z,74.46
2023-05-09T04:24:23.030Z,74.41
2023-05-09T04:26:49.929Z,74.21
2023-05-09T04:29:16.533Z,74.46
2023-05-09T04:31:43.445Z,74.65
2023-05-09T04:34:10.184Z,74.55
2023-05-09T04:36:36.965Z,74.25
2023-05-09T04:39:05.377Z,74.19
2023-05-09T04:41:32.462Z,74.23
2023-05-09T04:43:59.028Z,74.16
2023-05-09T04:46:26.251Z,74.12
2023-05-09T04:48:52.982Z,74.08
2023-05-09T04:51:19.725Z,74.04
2023-05-09T04:53:46.521Z,73.99
2023-05-09T04:56:13.166Z,74.03
2023-05-09T04:58:39.734Z,74.20
2023-05-09T05:01:06.736Z,74.06
2023-05-09T05:03:33.859Z,74.06
2023-05-09T05:06:00.484Z,74.00
2023-05-09T05:08:27.196Z,74.01
2023-05-09T05:10:53.952Z,73.88
2023-05-09T05:13:21.608Z,73.81
2023-05-09T05:15:48.872Z,73.92
2023-05-09T05:18:15.784Z,73.73
2023-05-09T05:20:42.762Z,73.92
2023-05-09T05:23:10.326Z,73.66
2023-05-09T05:25:37.168Z,73.38
2023-05-09T05:28:03.856Z,73.57
2023-05-09T05:30:32.798Z,73.34
2023-05-09T05:33:01.041Z,73.50
2023-05-09T05:35:28.874Z,73.35
2023-05-09T05:37:55.953Z,73.02
2023-05-09T05:40:22.557Z,73.01
2023-05-09T05:42:49.284Z,72.70
2023-05-09T05:45:16.421Z,72.34
2023-05-09T05:47:43.353Z,72.19
2023-05-09T05:50:12.166Z,71.92
2023-05-09T05:52:40.160Z,71.51
2023-05-09T05:55:07.620Z,71.15
2023-05-09T05:57:35.428Z,70.72
2023-05-09T06:00:02.439Z,70.83
2023-05-09T06:02:29.493Z,70.67
2023-05-09T06:04:56.308Z,70.63
2023-05-09T06:07:23.014Z,70.31
2023-05-09T06:09:49.731Z,70.16
2023-05-09T06:12:17.140Z,69.95
2023-05-09T06:14:44.030Z,69.81
2023-05-09T06:17:10.779Z,69.39
2023-05-09T06:19:39.383Z,69.32
2023-05-09T06:22:06.509Z,68.49
2023-05-09T06:24:36.330Z,68.49
2023-05-09T06:27:03.943Z,67.97
2023-05-09T06:29:30.644Z,67.54
2023-05-09T06:31:57.600Z,67.17
2023-05-09T06:34:24.240Z,67.03
2023-05-09T06:36:51.080Z,66.46
2023-05-09T06:39:17.817Z,65.93
2023-05-09T06:41:44.420Z,65.39
2023-05-09T06:44:11.250Z,64.54
2023-05-09T06:46:38.072Z,64.04
2023-05-09T06:49:06.095Z,63.65
2023-05-09T06:51:33.195Z,63.42
2023-05-09T06:53:59.813Z,63.02
2023-05-09T06:56:27.005Z,62.58
2023-05-09T06:58:53.786Z,61.69
2023-05-09T07:01:20.683Z,61.34
2023-05-09T07:03:47.701Z,60.56
2023-05-09T07:06:14.410Z,59.55
2023-05-09T07:08:41.016Z,59.67
2023-05-09T07:11:07.697Z,59.13
2023-05-09T07:13:34.427Z,58.88
2023-05-09T07:16:01.211Z,58.01
2023-05-09T07:18:27.869Z,57.71
2023-05-09T07:20:54.698Z,57.85
2023-05-09T07:23:22.137Z,57.46
2023-05-09T07:25:48.790Z,57.02
2023-05-09T07:28:15.553Z,56.36
2023-05-09T07:30:43.704Z,56.09
2023-05-09T07:33:10.500Z,56.03
2023-05-09T07:35:37.452Z,55.92
2023-05-09T07:38:06.401Z,55.27
2023-05-09T07:40:36.403Z,54.37
2023-05-09T07:43:03.307Z,53.79
2023-05-09T07:45:30.226Z,53.39
2023-05-09T07:47:56.851Z,53.30
2023-05-09T07:50:23.710Z,53.33
2023-05-09T07:52:51.294Z,53.05
2023-05-09T07:55:18.006Z,52.83
2023-05-09T07:57:44.986Z,51.75
2023-05-09T08:00:12.203Z,51.50
2023-05-09T08:02:38.961Z,51.08
2023-05-09T08:05:06.561Z,50.68
2023-05-09T08:07:33.506Z,50.52
2023-05-09T08:10:00.175Z,50.07
2023-05-09T08:12:26.896Z,50.12
2023-05-09T08:14:53.863Z,50.06
2023-05-09T08:17:20.585Z,50.11
2023-05-09T08:19:47.200Z,49.65
2023-05-09T08:22:18.713Z,50.04
2023-05-09T08:24:46.770Z,49.75
2023-05-09T08:27:14.389Z,49.86
2023-05-09T08:29:41.269Z,49.78
2023-05-09T08:32:08.524Z,49.51
2023-05-09T08:34:35.729Z,49.51
2023-05-09T08:37:02.731Z,49.66
2023-05-09T08:39:31.020Z,49.38
2023-05-09T08:42:02.234Z,49.25
2023-05-09T08:44:30.999Z,49.58
2023-05-09T08:47:02.660Z,49.69
2023-05-09T08:49:31.486Z,49.43
2023-05-09T08:51:58.978Z,48.95
2023-05-09T08:54:25.780Z,48.30
2023-05-09T08:56:52.871Z,48.39
2023-05-09T08:59:19.766Z,47.80
2023-05-09T09:01:46.903Z,47.93
2023-05-09T09:04:14.266Z,48.40
2023-05-09T09:06:41.528Z,48.50
2023-05-09T09:09:09.165Z,48.15
2023-05-09T09:11:37.052Z,47.83
2023-05-09T09:14:15.654Z,46.69
2023-05-09T09:16:45.307Z,46.48
2023-05-09T09:19:16.577Z,46.29
2023-05-09T09:21:49.906Z,45.74
2023-05-09T09:24:21.840Z,45.21
2023-05-09T09:26:49.741Z,45.06
2023-05-09T09:29:17.903Z,44.53
2023-05-09T09:31:46.393Z,44.49
2023-05-09T09:34:19.304Z,44.71
2023-05-09T09:36:46.986Z,45.16
2023-05-09T09:39:14.468Z,45.47
2023-05-09T09:41:41.783Z,45.54
2023-05-09T09:44:15.216Z,44.54
2023-05-09T09:46:52.029Z,44.09
2023-05-09T09:49:24.137Z,44.62
2023-05-09T09:51:52.127Z,44.34
2023-05-09T09:54:19.133Z,44.71
2023-05-09T09:56:50.793Z,44.62
2023-05-09T09:59:21.858Z,44.12
2023-05-09T10:02:07.172Z,44.28
2023-05-09T10:04:36.937Z,44.37
2023-05-09T10:07:12.765Z,44.18
2023-05-09T10:09:41.856Z,44.20
2023-05-09T10:12:08.923Z,44.31
2023-05-09T10:14:36.930Z,44.57
2023-05-09T10:17:05.908Z,44.89
2023-05-09T10:19:33.388Z,44.70
2023-05-09T10:22:08.440Z,44.97
2023-05-09T10:24:41.536Z,45.04
2023-05-09T10:27:13.127Z,44.79
2023-05-09T10:29:49.410Z,44.58
2023-05-09T10:32:23.718Z,44.79
2023-05-09T10:34:54.792Z,44.89
2023-05-09T10:37:21.953Z,44.99
2023-05-09T10:39:53.381Z,44.69
2023-05-09T10:42:20.514Z,44.82
2023-05-09T10:44:48.136Z,45.10
2023-05-09T10:47:15.968Z,44.98
2023-05-09T10:49:44.309Z,45.13
2023-05-09T10:52:11.846Z,44.84
2023-05-09T10:54:38.713Z,44.68
2023-05-09T10:57:09.184Z,44.82
2023-05-09T10:59:41.604Z,44.54
2023-05-09T11:02:19.103Z,44.63
2023-05-09T11:04:46.139Z,44.46
2023-05-09T11:07:26.095Z,44.60
2023-05-09T11:10:08.683Z,44.55
2023-05-09T11:12:52.784Z,44.56
2023-05-09T11:15:20.524Z,44.40
2023-05-09T11:17:58.304Z,44.33
2023-05-09T11:20:28.802Z,44.35
2023-05-09T11:22:57.600Z,44.45
2023-05-09T11:25:36.245Z,44.23
2023-05-09T11:28:03.063Z,43.89
2023-05-09T11:30:47.662Z,44.37
2023-05-09T11:33:27.246Z,44.20
2023-05-09T11:36:25.272Z,43.96
2023-05-09T11:39:11.544Z,44.09
2023-05-09T11:41:50.412Z,44.03
2023-05-09T11:44:19.751Z,44.22
2023-05-09T11:46:47.718Z,44.30
2023-05-09T11:49:22.192Z,44.42
2023-05-09T11:51:49.240Z,44.64
2023-05-09T11:54:16.537Z,44.52
2023-05-09T11:56:43.629Z,44.26
2023-05-09T11:59:13.212Z,44.39
2023-05-09T12:01:39.934Z,44.45
2023-05-09T12:04:08.452Z,44.59
2023-05-09T12:06:35.221Z,44.36
2023-05-09T12:09:02.005Z,44.32
2023-05-09T12:11:32.560Z,43.85
2023-05-09T12:13:59.446Z,44.11
2023-05-09T12:16:26.099Z,44.12
2023-05-09T12:18:54.764Z,44.14
2023-05-09T12:21:22.060Z,43.90
2023-05-09T12:23:51.230Z,43.75
2023-05-09T12:26:19.747Z,43.45
2023-05-09T12:28:48.481Z,43.70
2023-05-09T12:31:16.222Z,43.36
2023-05-09T12:33:43.246Z,43.22
2023-05-09T12:36:12.468Z,43.18
2023-05-09T12:38:39.433Z,43.16
2023-05-09T12:41:18.192Z,42.67
2023-05-09T12:43:50.002Z,42.52
2023-05-09T12:46:21.183Z,42.21
2023-05-09T12:48:49.349Z,42.59
2023-05-09T12:51:21.402Z,42.74
2023-05-09T12:53:48.592Z,42.94
2023-05-09T12:56:18.011Z,42.81
2023-05-09T12:58:50.777Z,42.92
2023-05-09T13:01:18.025Z,42.46
2023-05-09T13:03:45.024Z,42.69
2023-05-09T13:06:13.716Z,42.93
2023-05-09T13:08:41.434Z,42.63
2023-05-09T13:11:16.807Z,42.60
2023-05-09T13:13:43.994Z,42.44
2023-05-09T13:16:12.052Z,42.85
2023-05-09T13:18:40.047Z,43.36
2023-05-09T13:21:07.296Z,43.62
2023-05-09T13:23:33.884Z,43.62
2023-05-09T13:26:00.521Z,43.76
2023-05-09T13:28:27.392Z,43.79
2023-05-09T13:30:54.324Z,43.86
2023-05-09T13:35:51.299Z,43.97
2023-05-09T13:38:18.444Z,43.86
2023-05-09T13:40:45.037Z,44.22
2023-05-09T13:43:12.157Z,43.95
2023-05-09T13:45:38.735Z,44.14
2023-05-09T13:48:05.576Z,44.43
2023-05-09T13:50:32.570Z,44.00
2023-05-09T13:52:59.160Z,43.90
2023-05-09T13:55:27.046Z,43.74
2023-05-09T13:57:53.844Z,43.58
2023-05-09T14:00:21.617Z,43.74
2023-05-09T14:02:48.454Z,43.38
2023-05-09T14:05:15.786Z,43.39
2023-05-09T14:07:42.849Z,43.39
2023-05-09T14:10:11.744Z,43.35
2023-05-09T14:12:47.619Z,43.70
2023-05-09T14:15:14.357Z,43.50
2023-05-09T14:17:41.010Z,43.30
2023-05-09T14:20:08.729Z,43.18
2023-05-09T14:22:35.326Z,43.01
2023-05-09T14:25:02.187Z,43.62
2023-05-09T14:27:29.112Z,43.40
2023-05-09T14:29:56.237Z,43.28
2023-05-09T14:32:23.225Z,42.91
2023-05-09T14:34:50.255Z,42.50
2023-05-09T14:37:16.980Z,42.43
2023-05-09T14:39:45.308Z,42.29
2023-05-09T14:42:14.504Z,42.63
2023-05-09T14:44:41.653Z,42.22
2023-05-09T14:47:11.491Z,41.98
2023-05-09T14:49:41.760Z,42.26
2023-05-09T14:52:08.426Z,41.89
2023-05-09T14:54:35.361Z,41.55
2023-05-09T14:57:04.790Z,41.63
2023-05-09T14:59:31.508Z,41.38
2023-05-09T15:01:58.234Z,41.36
2023-05-09T15:04:28.434Z,41.40
2023-05-09T15:06:55.153Z,41.61
2023-05-09T15:09:22.519Z,41.67
2023-05-09T15:11:49.967Z,41.61
2023-05-09T15:14:16.788Z,42.18
2023-05-09T15:16:43.823Z,42.09
2023-05-09T15:19:10.710Z,42.14
2023-05-09T15:21:37.351Z,41.99
2023-05-09T15:24:04.861Z,42.41
2023-05-09T15:26:32.553Z,42.45
2023-05-09T15:28:59.302Z,42.54
2023-05-09T15:31:26.140Z,42.64
2023-05-09T15:33:53.685Z,42.45
2023-05-09T15:36:20.316Z,42.35
2023-05-09T15:38:49.712Z,42.54
2023-05-09T15:41:17.253Z,42.51
2023-05-09T15:43:43.876Z,42.89
2023-05-09T15:46:11.147Z,43.05
2023-05-09T15:48:37.962Z,43.04
2023-05-09T15:51:04.969Z,42.86
2023-05-09T15:53:31.867Z,42.88
2023-05-09T15:55:58.862Z,43.19
2023-05-09T15:58:25.487Z,43.39
2023-05-09T16:00:52.332Z,43.32
2023-05-09T16:03:19.639Z,43.65
2023-05-09T16:05:46.565Z,43.61
2023-05-09T16:08:18.626Z,44.31
2023-05-09T16:10:49.289Z,44.07
2023-05-09T16:13:19.368Z,44.27
2023-05-09T16:15:47.939Z,44.29
2023-05-09T16:18:14.916Z,44.51
2023-05-09T16:20:44.161Z,44.29
2023-05-09T16:23:11.298Z,44.39
2023-05-09T16:25:38.703Z,44.33
2023-05-09T16:28:07.156Z,44.33
2023-05-09T16:30:33.989Z,44.39
2023-05-09T16:33:00.951Z,44.64
2023-05-09T16:35:27.703Z,44.68
2023-05-09T16:37:54.407Z,44.80
2023-05-09T16:40:21.711Z,45.08
2023-05-09T16:42:48.371Z,45.42
2023-05-09T16:45:14.972Z,45.38
2023-05-09T16:47:41.713Z,45.44
2023-05-09T16:50:10.294Z,45.52
2023-05-09T16:52:37.180Z,45.68
2023-05-09T16:55:04.288Z,45.88
2023-05-09T16:57:31.008Z,45.92
2023-05-09T16:59:58.561Z,45.87
2023-05-09T17:02:25.955Z,46.07
2023-05-09T17:04:52.784Z,45.98
2023-05-09T17:07:20.098Z,46.03
2023-05-09T17:09:48.410Z,45.95
2023-05-09T17:12:18.212Z,46.36
2023-05-09T17:14:48.662Z,46.49
2023-05-09T17:17:18.462Z,47.01
2023-05-09T17:19:45.665Z,46.70
2023-05-09T17:22:12.483Z,46.92
2023-05-09T17:24:42.021Z,47.14
2023-05-09T17:27:10.796Z,47.17
2023-05-09T17:29:37.641Z,47.66
2023-05-09T17:32:07.929Z,47.49
2023-05-09T17:34:34.812Z,47.51
2023-05-09T17:37:05.900Z,47.41
2023-05-09T17:39:33.086Z,47.08
2023-05-09T17:41:59.807Z,47.08
2023-05-09T17:44:27.348Z,46.98
2023-05-09T17:46:54.558Z,46.89
2023-05-09T17:49:21.377Z,46.77
2023-05-09T17:51:48.085Z,46.38
2023-05-09T17:54:16.149Z,46.58
2023-05-09T17:56:43.013Z,46.57
2023-05-09T17:59:09.873Z,46.49
2023-05-09T18:01:36.861Z,46.45
2023-05-09T18:04:03.768Z,46.44
2023-05-09T18:06:31.490Z,46.41
2023-05-09T18:08:58.597Z,46.48
2023-05-09T18:11:26.504Z,46.32
2023-05-09T18:13:53.546Z,46.43
2023-05-09T18:16:21.981Z,46.38
2023-05-09T18:18:48.887Z,46.49
2023-05-09T18:21:15.757Z,46.51
2023-05-09T18:23:42.570Z,46.68
2023-05-09T18:26:09.264Z,46.69
2023-05-09T18:28:42.047Z,46.84
2023-05-09T18:31:10.023Z,47.03
2023-05-09T18:33:38.927Z,47.04
2023-05-09T18:36:11.187Z,47.22
2023-05-09T18:38:41.694Z,47.25
2023-05-09T18:41:10.326Z,47.36
2023-05-09T18:43:39.020Z,47.34
2023-05-09T18:46:05.857Z,47.59
2023-05-09T18:48:33.015Z,47.62
2023-05-09T18:50:59.834Z,47.82
2023-05-09T18:53:26.889Z,47.89
2023-05-09T18:55:53.631Z,48.16
2023-05-09T18:58:21.576Z,48.08
2023-05-09T19:00:48.359Z,48.54
2023-05-09T19:03:15.241Z,48.53
2023-05-09T19:05:43.130Z,48.54
2023-05-09T19:08:09.800Z,48.71
2023-05-09T19:10:37.953Z,48.86
2023-05-09T19:13:06.767Z,48.93
2023-05-09T19:15:34.554Z,49.26
2023-05-09T19:18:01.903Z,49.42
2023-05-09T19:20:30.009Z,49.51
2023-05-09T19:22:57.426Z,49.59
2023-05-09T19:25:26.251Z,49.71
2023-05-09T19:27:53.197Z,49.74
2023-05-09T19:30:20.917Z,50.03
2023-05-09T19:32:47.838Z,50.22
2023-05-09T19:35:14.634Z,50.65
2023-05-09T19:37:41.572Z,51.01
2023-05-09T19:40:08.594Z,51.10
2023-05-09T19:42:35.899Z,51.45
2023-05-09T19:45:03.629Z,51.65
2023-05-09T19:47:30.523Z,51.75
2023-05-09T19:49:57.271Z,52.06
2023-05-09T19:52:24.394Z,52.47
2023-05-09T19:54:51.071Z,52.92
2023-05-09T19:57:17.794Z,53.08
2023-05-09T19:59:44.879Z,53.69
2023-05-09T20:02:11.639Z,53.99
2023-05-09T20:04:38.748Z,54.30
2023-05-09T20:07:07.837Z,54.46
2023-05-09T20:09:34.423Z,54.90
2023-05-09T20:12:08.090Z,55.28
2023-05-09T20:14:34.888Z,55.50
2023-05-09T20:17:02.000Z,55.35
2023-05-09T20:19:28.870Z,55.46
2023-05-09T20:21:56.032Z,55.80
2023-05-09T20:24:22.750Z,55.88
2023-05-09T20:26:49.626Z,55.96
2023-05-09T20:29:16.293Z,55.99
2023-05-09T20:31:43.313Z,56.09
2023-05-09T20:34:16.400Z,56.18
2023-05-09T20:36:43.287Z,56.21
2023-05-09T20:39:11.746Z,56.55
2023-05-09T20:41:38.808Z,56.14
2023-05-09T20:44:05.418Z,55.97
2023-05-09T20:46:32.108Z,56.26
2023-05-09T20:48:59.030Z,56.25
2023-05-09T20:51:25.889Z,56.30
2023-05-09T20:53:52.468Z,56.17
2023-05-09T20:56:19.772Z,56.25
2023-05-09T20:58:46.613Z,56.34
2023-05-09T21:01:13.265Z,56.46
2023-05-09T21:03:40.105Z,56.27
2023-05-09T21:06:07.345Z,56.48
2023-05-09T21:08:33.955Z,56.45
2023-05-09T21:11:00.999Z,56.71
2023-05-09T21:13:28.109Z,56.72
2023-05-09T21:15:54.762Z,56.85
2023-05-09T21:18:21.456Z,56.91
2023-05-09T21:20:48.117Z,56.94
2023-05-09T21:23:14.707Z,56.85
2023-05-09T21:25:42.640Z,56.86
2023-05-09T21:28:09.183Z,57.00
2023-05-09T21:30:35.854Z,56.95
2023-05-09T21:33:04.112Z,57.11
2023-05-09T21:35:31.011Z,57.30
2023-05-09T21:37:57.652Z,57.14
2023-05-09T21:40:24.731Z,57.04
2023-05-09T21:42:51.609Z,57.18
2023-05-09T21:45:19.094Z,56.95
2023-05-09T21:47:46.079Z,57.15
2023-05-09T21:50:12.736Z,57.38
2023-05-09T21:52:39.385Z,57.35
2023-05-09T21:55:06.570Z,57.35
2023-05-09T21:57:33.234Z,57.67
2023-05-09T22:00:01.551Z,57.86
2023-05-09T22:02:31.812Z,58.02
2023-05-09T22:04:58.620Z,58.22
2023-05-09T22:07:25.428Z,58.42
2023-05-09T22:09:53.137Z,58.87
2023-05-09T22:12:19.925Z,58.76
2023-05-09T22:14:55.895Z,59.24
2023-05-09T22:17:24.136Z,59.21
2023-05-09T22:19:51.489Z,59.42
2023-05-09T22:22:18.125Z,59.39
2023-05-09T22:24:45.075Z,59.71
2023-05-09T22:27:11.677Z,59.60
2023-05-09T22:29:38.380Z,59.74
2023-05-09T22:32:08.432Z,59.92
2023-05-09T22:34:35.587Z,59.65
2023-05-09T22:37:02.260Z,59.57
2023-05-09T22:39:30.077Z,60.11
2023-05-09T22:41:56.764Z,60.09
2023-05-09T22:44:23.340Z,60.38
2023-05-09T22:46:50.284Z,60.60
2023-05-09T22:49:16.909Z,60.66
2023-05-09T22:51:43.606Z,60.87
2023-05-09T22:54:10.363Z,60.92
2023-05-09T22:56:36.995Z,61.11
2023-05-09T22:59:03.603Z,61.49
2023-05-09T23:01:30.453Z,61.46
2023-05-09T23:03:57.072Z,61.42
2023-05-09T23:06:23.662Z,61.83
2023-05-09T23:08:51.334Z,61.71
2023-05-09T23:11:17.887Z,62.28
2023-05-09T23:13:44.455Z,61.96
2023-05-09T23:16:11.464Z,62.18
2023-05-09T23:18:38.090Z,62.50
2023-05-09T23:21:05.351Z,62.50
2023-05-09T23:23:32.479Z,62.81
2023-05-09T23:25:59.084Z,62.79
2023-05-09T23:28:25.720Z,62.72
2023-05-09T23:30:53.907Z,62.59
2023-05-09T23:33:20.593Z,62.88
2023-05-09T23:35:48.176Z,62.88
2023-05-09T23:38:15.346Z,63.01
2023-05-09T23:40:46.120Z,63.36
2023-05-09T23:43:13.379Z,63.03
2023-05-09T23:45:40.508Z,63.16
2023-05-09T23:48:07.593Z,63.38
2023-05-09T23:50:34.531Z,63.58
2023-05-09T23:53:01.736Z,63.54
2023-05-09T23:55:28.293Z,63.48
2023-05-09T23:57:54.961Z,63.44
